Time;durP1;ratioP1;P1;durP2;ratioP2;P2;SDS_P1;SDS_P2;PMS_P1;PMS_P2;Temp;Humidity;BMP_temperature;BMP_pressure;BME280_temperature;BME280_humidity;BME280_pressure;Samples;Min_cycle;Max_cycle;Signal;HPM_P1;HPM_P2
2023/07/05 00:03:52;;;;;;;19.30;8.95;;;;;16.10;96079.00;;;;8313379;28;20312;-62
2023/07/05 00:08:00;;;;;;;16.63;7.93;;;;;16.00;96078.00;;;;8307877;28;20197;-64
2023/07/05 00:12:08;;;;;;;14.00;8.30;;;;;15.90;96077.00;;;;8320036;28;20275;-64
2023/07/05 00:16:13;;;;;;;13.27;8.30;;;;;15.70;96072.00;;;;8320734;28;20229;-64
2023/07/05 00:20:16;;;;;;;12.43;7.80;;;;;15.70;96062.00;;;;8317581;28;20205;-65
2023/07/05 00:24:19;;;;;;;15.65;7.90;;;;;15.70;96055.00;;;;8318174;28;20643;-66
2023/07/05 00:28:29;;;;;;;12.82;8.18;;;;;15.60;96052.00;;;;8317987;28;20699;-65
2023/07/05 00:32:32;;;;;;;15.52;7.90;;;;;15.70;96047.00;;;;8317978;28;20228;-63
2023/07/05 00:36:43;;;;;;;16.20;8.40;;;;;15.60;96059.00;;;;8318454;28;20208;-65
2023/07/05 00:40:49;;;;;;;12.85;7.93;;;;;15.70;96041.00;;;;8308064;28;20658;-63
2023/07/05 00:45:34;;;;;;;16.00;8.27;;;;;15.50;96031.00;;;;8318038;28;20816;-65
2023/07/05 00:49:41;;;;;;;11.95;7.53;;;;;15.30;96023.00;;;;8313016;28;20211;-63
2023/07/05 00:53:52;;;;;;;12.50;8.13;;;;;15.40;96019.00;;;;8316604;28;20194;-64
2023/07/05 00:58:00;;;;;;;16.08;8.55;;;;;15.40;96019.00;;;;8317633;28;20301;-63
2023/07/05 01:02:13;;;;;;;16.63;8.25;;;;;15.40;96025.00;;;;8314896;28;20267;-67
2023/07/05 01:06:21;;;;;;;14.70;7.90;;;;;15.20;96021.00;;;;8312474;28;20193;-62
2023/07/05 01:10:26;;;;;;;15.15;7.97;;;;;15.20;96027.00;;;;8316342;28;20697;-64
2023/07/05 01:14:35;;;;;;;15.57;8.38;;;;;15.20;96039.00;;;;8315213;28;20784;-65
2023/07/05 01:18:53;;;;;;;15.55;7.97;;;;;15.30;96047.00;;;;8314315;28;20190;-64
2023/07/05 01:23:29;;;;;;;13.82;8.75;;;;;15.20;96044.00;;;;8301374;28;20638;-63
2023/07/05 01:27:58;;;;;;;15.25;8.35;;;;;15.10;96053.00;;;;8316009;28;20243;-66
2023/07/05 01:32:17;;;;;;;20.00;8.13;;;;;15.10;96042.00;;;;8315771;28;20225;-64
2023/07/05 01:36:23;;;;;;;13.98;8.43;;;;;15.10;96038.00;;;;8291330;28;20274;-63
2023/07/05 01:40:51;;;;;;;16.45;7.93;;;;;15.00;96034.00;;;;8314940;28;20232;-64
2023/07/05 01:44:57;;;;;;;20.10;9.27;;;;;14.90;96042.00;;;;8308440;28;20639;-63
2023/07/05 01:49:32;;;;;;;13.35;7.88;;;;;14.80;96042.00;;;;8315273;28;20234;-63
2023/07/05 01:53:48;;;;;;;15.55;8.75;;;;;14.90;96039.00;;;;8316897;28;20752;-64
2023/07/05 01:57:56;;;;;;;13.80;8.07;;;;;14.90;96043.00;;;;8315731;28;20216;-64
2023/07/05 02:02:05;;;;;;;15.52;8.73;;;;;15.00;96079.00;;;;8316634;28;20255;-64
2023/07/05 02:06:13;;;;;;;14.93;8.30;;;;;15.20;96070.00;;;;8316548;28;20216;-63
2023/07/05 02:10:19;;;;;;;16.23;8.88;;;;;15.30;96075.00;;;;8316584;28;20303;-63
2023/07/05 02:14:22;;;;;;;15.48;8.70;;;;;15.50;96069.00;;;;8316355;28;20273;-63
2023/07/05 02:18:26;;;;;;;17.77;8.68;;;;;15.70;96074.00;;;;8318218;28;20843;-64
2023/07/05 02:22:30;;;;;;;19.17;9.15;;;;;15.80;96060.00;;;;8316717;28;20700;-64
2023/07/05 02:26:34;;;;;;;18.05;8.82;;;;;15.90;96055.00;;;;8303593;28;20297;-64
2023/07/05 02:30:37;;;;;;;22.58;9.27;;;;;15.90;96035.00;;;;8320793;28;20257;-64
2023/07/05 02:34:45;;;;;;;13.38;7.72;;;;;15.90;96024.00;;;;8322499;28;20836;-63
2023/07/05 02:38:52;;;;;;;15.18;8.07;;;;;15.80;96027.00;;;;8321081;28;20589;-64
2023/07/05 02:42:56;;;;;;;15.35;8.82;;;;;15.90;96010.00;;;;8319905;28;20202;-65
2023/07/05 02:47:02;;;;;;;13.13;7.47;;;;;15.90;95995.00;;;;8329336;28;20733;-62
2023/07/05 02:51:07;;;;;;;11.90;7.00;;;;;15.90;95974.00;;;;8318094;28;20770;-64
2023/07/05 02:55:21;;;;;;;12.98;7.13;;;;;15.80;95973.00;;;;8320674;28;20206;-65
2023/07/05 02:59:24;;;;;;;13.73;7.05;;;;;15.80;95972.00;;;;8315307;28;20663;-66
2023/07/05 03:03:33;;;;;;;11.13;6.55;;;;;15.80;95966.00;;;;8325206;23;20229;-64
2023/07/05 03:07:36;;;;;;;13.27;6.30;;;;;15.80;95971.00;;;;8293554;28;20525;-65
2023/07/05 03:11:43;;;;;;;12.40;6.25;;;;;15.80;95967.00;;;;8319543;28;20378;-68
2023/07/05 03:15:49;;;;;;;15.40;6.25;;;;;15.80;95973.00;;;;8283267;28;20199;-63
2023/07/05 03:19:56;;;;;;;10.00;6.20;;;;;15.90;95971.00;;;;8313249;28;20287;-63
2023/07/05 03:23:59;;;;;;;10.85;7.25;;;;;15.90;95964.00;;;;8296100;28;20205;-64
2023/07/05 03:28:04;;;;;;;11.73;7.18;;;;;15.80;95966.00;;;;8305585;28;20288;-63
2023/07/05 03:32:10;;;;;;;12.95;6.65;;;;;15.70;95963.00;;;;8313846;28;20997;-64
2023/07/05 03:36:18;;;;;;;9.05;6.40;;;;;15.60;95952.00;;;;8305503;28;20280;-63
2023/07/05 03:40:21;;;;;;;12.43;6.80;;;;;15.60;95954.00;;;;8303974;28;20208;-62
2023/07/05 03:44:25;;;;;;;10.50;5.82;;;;;15.60;95959.00;;;;8311910;28;20297;-63
2023/07/05 03:48:32;;;;;;;11.38;5.90;;;;;15.50;95956.00;;;;8300207;28;20305;-63
2023/07/05 03:52:35;;;;;;;12.77;5.85;;;;;15.50;95962.00;;;;8311907;28;20303;-64
2023/07/05 03:56:43;;;;;;;10.82;5.50;;;;;15.40;95963.00;;;;8313564;28;20891;-63
2023/07/05 04:00:47;;;;;;;11.48;5.25;;;;;15.50;95961.00;;;;8307692;28;20204;-64
2023/07/05 04:04:55;;;;;;;7.53;5.22;;;;;15.70;95966.00;;;;8312467;28;20282;-65
2023/07/05 04:08:58;;;;;;;11.07;6.03;;;;;15.90;95957.00;;;;8318908;28;20260;-65
2023/07/05 04:13:03;;;;;;;5.57;4.25;;;;;16.10;95962.00;;;;8317095;28;20636;-63
2023/07/05 04:17:10;;;;;;;6.57;4.43;;;;;16.30;95967.00;;;;8319639;28;20205;-64
2023/07/05 04:21:16;;;;;;;5.53;4.18;;;;;16.60;95967.00;;;;8318886;28;20280;-63
2023/07/05 04:25:28;;;;;;;6.90;4.00;;;;;16.90;95970.00;;;;8319189;28;20205;-63
2023/07/05 04:29:32;;;;;;;6.32;4.28;;;;;17.30;95988.00;;;;8316756;28;20645;-63
2023/07/05 04:33:37;;;;;;;5.63;4.43;;;;;17.70;95985.00;;;;8319486;28;20267;-64
2023/07/05 04:37:40;;;;;;;9.18;4.55;;;;;18.40;95992.00;;;;8318728;28;20219;-63
2023/07/05 04:41:47;;;;;;;10.13;4.90;;;;;19.00;96002.00;;;;8318684;28;20201;-64
2023/07/05 04:45:51;;;;;;;7.05;4.55;;;;;19.40;96001.00;;;;8312574;28;20710;-66
2023/07/05 04:49:58;;;;;;;9.57;5.32;;;;;19.70;96001.00;;;;8308907;28;20304;-66
2023/07/05 04:54:06;;;;;;;8.20;4.38;;;;;20.10;96007.00;;;;8308976;28;20275;-65
2023/07/05 04:58:12;;;;;;;7.97;4.15;;;;;20.40;96019.00;;;;8312482;28;20236;-64
2023/07/05 05:02:16;;;;;;;6.45;4.45;;;;;20.70;96024.00;;;;8317700;28;20312;-65
2023/07/05 05:06:23;;;;;;;5.35;3.92;;;;;20.90;96023.00;;;;8311307;28;20227;-69
2023/07/05 05:10:28;;;;;;;5.78;3.50;;;;;21.30;96042.00;;;;8307634;28;20625;-65
2023/07/05 05:14:34;;;;;;;4.65;3.75;;;;;21.60;96045.00;;;;8312588;28;20244;-64
2023/07/05 05:18:38;;;;;;;3.92;3.53;;;;;22.00;96049.00;;;;8312831;28;20227;-62
2023/07/05 05:22:42;;;;;;;4.88;3.88;;;;;22.10;96053.00;;;;8317486;28;20375;-63
2023/07/05 05:26:47;;;;;;;5.07;3.55;;;;;21.90;96056.00;;;;8312112;28;20288;-63
2023/07/05 05:30:53;;;;;;;4.90;3.72;;;;;21.70;96077.00;;;;8319759;28;20268;-67
2023/07/05 05:34:57;;;;;;;5.10;3.80;;;;;21.50;96084.00;;;;8310852;28;20275;-67
2023/07/05 05:39:04;;;;;;;4.10;3.30;;;;;21.40;96101.00;;;;8321524;28;20202;-63
2023/07/05 05:43:07;;;;;;;8.32;3.40;;;;;21.40;96102.00;;;;8315765;28;20206;-65
2023/07/05 05:47:12;;;;;;;6.47;3.90;;;;;21.50;96120.00;;;;8306351;28;21129;-65
2023/07/05 05:51:17;;;;;;;4.40;3.20;;;;;21.50;96135.00;;;;8318470;28;20201;-66
2023/07/05 05:55:22;;;;;;;5.38;3.35;;;;;21.60;96139.00;;;;8315004;28;20893;-65
2023/07/05 05:59:27;;;;;;;4.38;3.38;;;;;21.70;96139.00;;;;8316761;28;20197;-67
2023/07/05 06:03:30;;;;;;;3.88;3.50;;;;;21.80;96151.00;;;;8327619;28;20816;-67
2023/07/05 06:07:36;;;;;;;5.72;3.45;;;;;22.00;96149.00;;;;8329695;28;20219;-65
2023/07/05 06:11:46;;;;;;;6.32;3.30;;;;;22.40;96154.00;;;;8317190;28;20241;-64
2023/07/05 06:15:54;;;;;;;4.20;2.78;;;;;22.80;96166.00;;;;8311479;28;20718;-64
2023/07/05 06:20:15;;;;;;;7.68;3.58;;;;;22.40;96183.00;;;;8311972;28;20236;-66
2023/07/05 06:24:18;;;;;;;5.25;3.10;;;;;21.20;96195.00;;;;8325535;28;20193;-71
2023/07/05 06:28:25;;;;;;;10.13;3.35;;;;;20.00;96206.00;;;;8313102;28;20248;-74
2023/07/05 06:32:28;;;;;;;5.40;3.30;;;;;19.10;96205.00;;;;8323256;28;20239;-74
2023/07/05 06:36:31;;;;;;;6.75;3.75;;;;;18.50;96200.00;;;;8327164;28;20214;-74
2023/07/05 06:40:37;;;;;;;5.32;3.83;;;;;18.10;96208.00;;;;8316178;28;20672;-71
2023/07/05 06:44:41;;;;;;;6.50;4.35;;;;;17.80;96198.00;;;;8300817;28;20281;-71
2023/07/05 06:48:46;;;;;;;7.82;4.72;;;;;17.70;96195.00;;;;8312223;28;20292;-71
2023/07/05 06:52:50;;;;;;;7.13;4.53;;;;;17.50;96192.00;;;;8313490;28;20238;-72
2023/07/05 06:57:17;;;;;;;8.88;5.10;;;;;17.40;96194.00;;;;8313514;28;20197;-72
2023/07/05 07:01:22;;;;;;;9.57;4.82;;;;;17.30;96187.00;;;;8309456;28;20264;-71
2023/07/05 07:05:26;;;;;;;10.85;5.30;;;;;17.30;96182.00;;;;8314226;28;20780;-71
2023/07/05 07:09:31;;;;;;;13.52;5.85;;;;;17.30;96174.00;;;;8312916;28;20620;-71
2023/07/05 07:13:38;;;;;;;9.27;5.07;;;;;17.40;96160.00;;;;8319496;28;20272;-73
2023/07/05 07:17:47;;;;;;;10.50;5.53;;;;;17.50;96120.00;;;;8308891;28;20669;-71
2023/07/05 07:21:50;;;;;;;11.18;5.10;;;;;17.50;96101.00;;;;8316725;28;20197;-79
2023/07/05 07:26:07;;;;;;;7.97;4.93;;;;;17.80;96097.00;;;;8313713;28;20777;-73
2023/07/05 07:30:13;;;;;;;7.57;4.05;;;;;18.30;96110.00;;;;8313309;28;21820;-72
2023/07/05 07:34:19;;;;;;;4.38;3.38;;;;;18.80;96127.00;;;;8313371;28;20320;-71
2023/07/05 07:38:25;;;;;;;4.13;3.42;;;;;19.50;96110.00;;;;8310349;28;20233;-73
2023/07/05 07:42:28;;;;;;;5.75;3.42;;;;;20.00;96116.00;;;;8313714;28;20293;-73
2023/07/05 07:46:38;;;;;;;4.15;2.95;;;;;20.20;96112.00;;;;8308583;28;20289;-72
2023/07/05 07:50:49;;;;;;;2.95;2.70;;;;;20.50;96128.00;;;;8303874;28;20377;-73
2023/07/05 07:54:56;;;;;;;3.75;2.33;;;;;20.60;96121.00;;;;8318192;28;20217;-71
2023/07/05 07:59:00;;;;;;;2.97;2.78;;;;;20.50;96117.00;;;;8305700;28;20381;-73
2023/07/05 08:03:04;;;;;;;3.10;2.75;;;;;20.50;96113.00;;;;8309169;28;20288;-70
2023/07/05 08:07:11;;;;;;;5.00;2.65;;;;;20.70;96117.00;;;;8305978;28;20292;-70
2023/07/05 08:11:15;;;;;;;2.95;2.40;;;;;21.10;96118.00;;;;8309055;28;20392;-72
2023/07/05 08:15:19;;;;;;;3.17;2.40;;;;;21.70;96118.00;;;;8307413;28;20228;-70
2023/07/05 08:19:22;;;;;;;3.33;2.28;;;;;23.00;96120.00;;;;8310235;28;20558;-70
2023/07/05 08:23:27;;;;;;;3.75;2.33;;;;;24.30;96115.00;;;;8316367;28;20931;-68
2023/07/05 08:27:30;;;;;;;1.98;1.88;;;;;25.20;96115.00;;;;8315394;28;20292;-70
2023/07/05 08:31:33;;;;;;;2.13;1.92;;;;;26.00;96117.00;;;;8317162;28;20300;-69
2023/07/05 08:35:38;;;;;;;2.53;2.10;;;;;26.40;96125.00;;;;8299385;28;20237;-72
2023/07/05 08:39:50;;;;;;;2.83;1.38;;;;;26.90;96115.00;;;;8317235;28;20213;-69
2023/07/05 08:44:07;;;;;;;3.42;1.70;;;;;27.20;96118.00;;;;8317791;28;20201;-69
2023/07/05 08:48:12;;;;;;;1.30;1.13;;;;;27.10;96107.00;;;;8314832;28;20205;-69
2023/07/05 08:52:23;;;;;;;1.00;1.00;;;;;27.00;96117.00;;;;8319775;28;20670;-68
2023/07/05 08:56:34;;;;;;;1.33;1.20;;;;;27.40;96112.00;;;;8315915;28;20194;-68
2023/07/05 09:00:45;;;;;;;1.25;0.98;;;;;27.60;96116.00;;;;8315922;28;20947;-69
2023/07/05 09:04:49;;;;;;;1.00;1.00;;;;;27.50;96117.00;;;;8318684;28;21812;-69
2023/07/05 09:09:04;;;;;;;1.10;1.10;;;;;27.60;96123.00;;;;8321521;28;20594;-69
2023/07/05 09:13:15;;;;;;;1.20;1.20;;;;;27.30;96122.00;;;;8303439;28;20312;-68
2023/07/05 09:17:27;;;;;;;1.02;1.02;;;;;27.40;96122.00;;;;8312931;28;21027;-70
2023/07/05 09:21:35;;;;;;;2.13;1.02;;;;;27.90;96108.00;;;;8314547;28;20202;-67
2023/07/05 09:25:49;;;;;;;2.90;1.58;;;;;28.20;96122.00;;;;8296462;28;20220;-66
2023/07/05 09:30:06;;;;;;;2.25;1.73;;;;;27.70;96122.00;;;;8311509;28;20264;-67
2023/07/05 09:34:19;;;;;;;2.15;1.65;;;;;28.20;96124.00;;;;8306975;28;20677;-69
2023/07/05 09:38:26;;;;;;;1.80;1.70;;;;;27.90;96126.00;;;;8314505;28;20292;-69
2023/07/05 09:42:34;;;;;;;2.17;1.98;;;;;27.80;96114.00;;;;8313221;28;20300;-67
2023/07/05 09:46:43;;;;;;;2.53;1.95;;;;;28.60;96108.00;;;;8319054;28;20201;-67
2023/07/05 09:50:49;;;;;;;2.35;2.05;;;;;28.50;96114.00;;;;8316034;28;20205;-66
2023/07/05 09:54:58;;;;;;;2.20;2.00;;;;;29.30;96110.00;;;;8316861;28;20263;-65
2023/07/05 09:59:09;;;;;;;1.70;1.60;;;;;30.10;96103.00;;;;8308948;28;20206;-66
2023/07/05 10:03:19;;;;;;;2.45;1.83;;;;;30.80;96098.00;;;;8297453;28;20225;-67
2023/07/05 10:07:32;;;;;;;2.00;1.85;;;;;31.40;96077.00;;;;8314087;28;21082;-65
2023/07/05 10:11:42;;;;;;;4.60;1.95;;;;;31.20;96103.00;;;;8306000;28;21067;-65
2023/07/05 10:15:47;;;;;;;2.00;1.90;;;;;31.00;96103.00;;;;8322698;28;20263;-67
2023/07/05 10:19:54;;;;;;;2.17;1.73;;;;;30.10;96151.00;;;;8315318;28;20198;-67
2023/07/05 10:23:59;;;;;;;1.30;1.20;;;;;28.20;96167.00;;;;8307214;28;20201;-68
2023/07/05 10:28:06;;;;;;;2.70;1.40;;;;;26.10;96179.00;;;;8289718;28;20256;-65
2023/07/05 10:32:19;;;;;;;1.65;1.38;;;;;24.50;96194.00;;;;8311535;28;20201;-65
2023/07/05 10:36:25;;;;;;;2.88;1.60;;;;;22.50;96217.00;;;;8312076;28;20218;-67
2023/07/05 10:40:32;;;;;;;5.30;1.58;;;;;20.30;96244.00;;;;8324683;28;20232;-68
2023/07/05 10:44:36;;;;;;;3.42;1.55;;;;;18.90;96264.00;;;;8314384;28;20213;-68
2023/07/05 10:48:42;;;;;;;8.63;1.77;;;;;18.10;96249.00;;;;8323224;28;20237;-74
2023/07/05 10:53:01;;;;;;;8.43;1.95;;;;;17.50;96250.00;;;;8310861;28;20649;-70
2023/07/05 10:57:15;;;;;;;8.85;2.10;;;;;17.10;96270.00;;;;8312327;28;20221;-70
2023/07/05 11:01:24;;;;;;;5.00;1.60;;;;;16.90;96234.00;;;;8311666;28;20301;-71
2023/07/05 11:05:34;;;;;;;7.47;1.67;;;;;16.80;96207.00;;;;8313756;28;20303;-72
2023/07/05 11:09:40;;;;;;;1.65;1.55;;;;;16.80;96198.00;;;;8314442;28;20204;-71
2023/07/05 11:13:44;;;;;;;7.65;2.15;;;;;17.00;96187.00;;;;8317321;28;20577;-71
2023/07/05 11:17:49;;;;;;;2.72;1.80;;;;;17.60;96182.00;;;;8311949;28;20209;-73
2023/07/05 11:21:52;;;;;;;7.07;1.85;;;;;18.20;96202.00;;;;8323830;28;20205;-74
2023/07/05 11:26:01;;;;;;;1.88;1.70;;;;;18.70;96216.00;;;;8329213;28;20645;-71
2023/07/05 11:30:26;;;;;;;2.13;1.75;;;;;18.90;96232.00;;;;8320116;28;20677;-71
2023/07/05 11:34:41;;;;;;;1.90;1.80;;;;;19.20;96240.00;;;;8316742;28;20259;-76
2023/07/05 11:39:08;;;;;;;2.78;2.00;;;;;19.20;96234.00;;;;8307441;28;20742;-70
2023/07/05 11:43:25;;;;;;;2.35;1.83;;;;;19.10;96220.00;;;;8311592;28;20628;-66
2023/07/05 11:47:51;;;;;;;4.43;1.90;;;;;19.20;96220.00;;;;8298208;28;20197;-66
2023/07/05 11:52:03;;;;;;;5.55;2.17;;;;;20.10;96215.00;;;;8308745;28;20255;-67
2023/07/05 11:56:09;;;;;;;3.28;1.95;;;;;20.90;96200.00;;;;8313866;28;20317;-71
2023/07/05 12:00:23;;;;;;;2.28;1.95;;;;;21.10;96187.00;;;;8319299;28;20225;-70
2023/07/05 12:04:28;;;;;;;3.25;2.00;;;;;22.10;96181.00;;;;8314448;28;20244;-69
2023/07/05 12:08:39;;;;;;;3.85;2.20;;;;;23.00;96174.00;;;;8306125;28;20261;-74
2023/07/05 12:12:42;;;;;;;2.50;2.30;;;;;23.70;96188.00;;;;8312021;28;20659;-66
2023/07/05 12:16:47;;;;;;;2.45;2.25;;;;;23.50;96202.00;;;;8307879;28;20231;-68
2023/07/05 12:20:55;;;;;;;2.00;1.90;;;;;24.00;96195.00;;;;8307980;28;20695;-68
2023/07/05 12:25:02;;;;;;;2.58;2.38;;;;;24.50;96193.00;;;;8308457;28;20647;-66
2023/07/05 12:29:22;;;;;;;4.10;2.60;;;;;24.50;96191.00;;;;8307514;28;20765;-68
2023/07/05 12:33:34;;;;;;;2.95;2.50;;;;;24.70;96180.00;;;;8297858;28;20765;-65
2023/07/05 12:37:39;;;;;;;2.80;2.53;;;;;25.40;96177.00;;;;8305273;28;20233;-67
2023/07/05 12:41:43;;;;;;;2.92;2.40;;;;;26.00;96184.00;;;;8305053;28;20207;-66
2023/07/05 12:45:49;;;;;;;4.22;2.08;;;;;26.20;96192.00;;;;8310985;28;20285;-67
2023/07/05 12:50:04;;;;;;;2.47;2.28;;;;;26.10;96176.00;;;;8317103;28;20321;-68
2023/07/05 12:54:10;;;;;;;2.47;2.28;;;;;26.00;96176.00;;;;8309824;28;20308;-68
2023/07/05 12:58:15;;;;;;;2.30;2.20;;;;;25.50;96185.00;;;;8318768;28;20808;-66
2023/07/05 13:02:28;;;;;;;2.05;1.95;;;;;25.20;96195.00;;;;8319852;28;20364;-67
2023/07/05 13:06:34;;;;;;;4.18;2.17;;;;;25.30;96192.00;;;;8311764;28;20248;-67
2023/07/05 13:10:39;;;;;;;2.53;2.33;;;;;25.30;96178.00;;;;8301637;28;20293;-67
2023/07/05 13:14:58;;;;;;;3.47;1.85;;;;;25.60;96183.00;;;;8310444;28;20247;-67
2023/07/05 13:19:03;;;;;;;2.30;2.08;;;;;26.20;96195.00;;;;8294068;28;20240;-68
2023/07/05 13:23:13;;;;;;;2.28;2.08;;;;;26.20;96195.00;;;;8310364;28;20228;-68
2023/07/05 13:27:21;;;;;;;3.42;2.22;;;;;26.00;96204.00;;;;8305769;28;20726;-68
2023/07/05 13:31:27;;;;;;;2.35;2.15;;;;;26.80;96207.00;;;;8312588;28;20205;-68
2023/07/05 13:35:34;;;;;;;2.17;1.98;;;;;27.60;96212.00;;;;8310135;28;20217;-68
2023/07/05 13:39:44;;;;;;;3.25;2.38;;;;;27.90;96212.00;;;;8306119;28;21871;-68
2023/07/05 13:43:52;;;;;;;2.30;2.10;;;;;27.90;96202.00;;;;8316013;28;20202;-68
2023/07/05 13:47:58;;;;;;;2.10;2.00;;;;;28.30;96208.00;;;;8311307;28;20208;-68
2023/07/05 13:52:08;;;;;;;6.05;2.53;;;;;28.50;96206.00;;;;8313824;28;20224;-70
2023/07/05 13:56:14;;;;;;;3.33;2.30;;;;;28.70;96212.00;;;;8309417;28;20244;-68
2023/07/05 14:00:18;;;;;;;3.38;2.10;;;;;29.20;96213.00;;;;8310637;28;20208;-68
2023/07/05 14:04:22;;;;;;;2.45;2.25;;;;;29.30;96210.00;;;;8319234;28;20228;-68
2023/07/05 14:08:26;;;;;;;2.75;2.47;;;;;29.50;96197.00;;;;8324008;28;20201;-68
2023/07/05 14:12:33;;;;;;;5.88;2.40;;;;;29.50;96202.00;;;;8320651;28;20204;-69
2023/07/05 14:16:40;;;;;;;4.82;2.35;;;;;28.80;96211.00;;;;8320926;28;20271;-69
2023/07/05 14:20:43;;;;;;;2.70;2.50;;;;;29.00;96202.00;;;;8327989;28;20213;-69
2023/07/05 14:24:48;;;;;;;2.80;2.60;;;;;29.20;96219.00;;;;8324444;28;20709;-69
2023/07/05 14:28:53;;;;;;;3.95;2.47;;;;;28.50;96208.00;;;;8317892;28;20320;-69
2023/07/05 14:32:57;;;;;;;2.75;2.55;;;;;28.10;96222.00;;;;8309884;28;20637;-69
2023/07/05 14:37:06;;;;;;;4.60;2.60;;;;;28.00;96221.00;;;;8310469;28;20239;-67
2023/07/05 14:41:13;;;;;;;3.15;2.85;;;;;27.80;96220.00;;;;8309847;28;20212;-68
2023/07/05 14:45:20;;;;;;;3.45;2.72;;;;;28.50;96215.00;;;;8324126;28;20658;-68
2023/07/05 14:49:24;;;;;;;3.75;2.75;;;;;28.20;96219.00;;;;8317615;28;20193;-72
2023/07/05 14:53:30;;;;;;;4.03;2.85;;;;;27.60;96235.00;;;;8314880;28;20205;-71
2023/07/05 14:57:33;;;;;;;3.10;2.72;;;;;27.80;96233.00;;;;8316511;28;20701;-72
2023/07/05 15:01:38;;;;;;;3.10;2.78;;;;;28.50;96223.00;;;;8314804;28;20240;-71
2023/07/05 15:05:41;;;;;;;2.90;2.60;;;;;29.40;96215.00;;;;8319643;28;20225;-71
2023/07/05 15:09:45;;;;;;;2.75;2.55;;;;;29.30;96231.00;;;;8318771;28;20210;-70
2023/07/05 15:13:48;;;;;;;3.25;2.95;;;;;29.70;96221.00;;;;8312026;28;20238;-71
2023/07/05 15:17:57;;;;;;;5.07;3.17;;;;;30.20;96219.00;;;;8310929;28;20303;-71
2023/07/05 15:22:01;;;;;;;3.22;2.80;;;;;30.30;96219.00;;;;8314059;28;20198;-70
2023/07/05 15:26:10;;;;;;;4.50;3.22;;;;;30.60;96219.00;;;;8307352;28;21023;-70
2023/07/05 15:30:14;;;;;;;3.13;2.83;;;;;30.20;96231.00;;;;8309372;28;20647;-69
2023/07/05 15:34:22;;;;;;;4.22;3.10;;;;;29.70;96222.00;;;;8309968;28;20572;-71
2023/07/05 15:38:28;;;;;;;3.42;3.13;;;;;29.30;96219.00;;;;8303245;28;20280;-70
2023/07/05 15:42:31;;;;;;;4.00;3.10;;;;;29.60;96220.00;;;;8313709;28;20220;-72
2023/07/05 15:46:40;;;;;;;3.53;2.92;;;;;29.50;96214.00;;;;8309757;28;20197;-69
2023/07/05 15:50:53;;;;;;;2.80;2.60;;;;;29.20;96233.00;;;;8316628;28;20228;-68
2023/07/05 15:54:57;;;;;;;3.30;3.00;;;;;29.60;96216.00;;;;8322821;28;20202;-69
2023/07/05 15:59:04;;;;;;;3.30;3.00;;;;;29.80;96212.00;;;;8325036;28;20229;-69
2023/07/05 16:03:08;;;;;;;3.40;3.10;;;;;29.60;96223.00;;;;8322814;28;20828;-69
2023/07/05 16:07:16;;;;;;;4.57;3.22;;;;;29.50;96211.00;;;;8322429;28;20205;-68
2023/07/05 16:11:20;;;;;;;3.30;2.83;;;;;29.50;96215.00;;;;8322893;28;20204;-68
2023/07/05 16:15:23;;;;;;;2.67;2.55;;;;;30.10;96220.00;;;;8335948;28;20201;-69
2023/07/05 16:19:31;;;;;;;3.45;3.10;;;;;30.40;96230.00;;;;8323866;28;20746;-69
2023/07/05 16:23:47;;;;;;;3.00;2.70;;;;;29.60;96230.00;;;;8310892;28;20293;-69
2023/07/05 16:27:50;;;;;;;3.40;3.10;;;;;29.30;96236.00;;;;8323390;28;20202;-69
2023/07/05 16:31:54;;;;;;;3.20;2.90;;;;;29.50;96227.00;;;;8337024;28;20197;-69
2023/07/05 16:36:03;;;;;;;3.20;2.90;;;;;30.20;96240.00;;;;8334397;28;20773;-69
2023/07/05 16:40:09;;;;;;;2.72;2.53;;;;;31.00;96237.00;;;;8338911;28;20205;-69
2023/07/05 16:44:13;;;;;;;2.58;2.40;;;;;31.70;96243.00;;;;8338490;28;20200;-69
2023/07/05 16:48:18;;;;;;;2.80;2.60;;;;;31.90;96247.00;;;;8328582;28;20194;-69
2023/07/05 16:52:21;;;;;;;2.63;2.42;;;;;31.30;96252.00;;;;8325587;28;20648;-72
2023/07/05 16:56:27;;;;;;;3.78;2.63;;;;;31.00;96241.00;;;;8333817;28;20231;-72
2023/07/05 17:00:31;;;;;;;2.65;2.45;;;;;30.90;96251.00;;;;8328354;28;20204;-70
2023/07/05 17:04:37;;;;;;;2.67;2.47;;;;;30.90;96249.00;;;;8333018;28;20233;-69
2023/07/05 17:08:43;;;;;;;2.45;2.25;;;;;31.40;96253.00;;;;8319155;28;20308;-69
2023/07/05 17:12:49;;;;;;;2.78;2.58;;;;;31.90;96255.00;;;;8324788;28;20197;-71
2023/07/05 17:16:55;;;;;;;2.60;2.40;;;;;32.20;96262.00;;;;8330028;28;20282;-67
2023/07/05 17:21:01;;;;;;;4.25;2.45;;;;;31.90;96257.00;;;;8334299;28;20292;-70
2023/07/05 17:25:06;;;;;;;3.53;2.30;;;;;31.80;96260.00;;;;8320121;28;20205;-68
2023/07/05 17:29:11;;;;;;;4.68;2.42;;;;;31.50;96264.00;;;;8312711;28;20241;-70
2023/07/05 17:33:16;;;;;;;2.70;2.50;;;;;31.30;96271.00;;;;8335467;28;20220;-68
2023/07/05 17:37:19;;;;;;;2.60;2.40;;;;;30.90;96271.00;;;;8339717;28;20236;-69
2023/07/05 17:41:22;;;;;;;2.83;2.50;;;;;30.80;96270.00;;;;8321811;28;20201;-69
2023/07/05 17:45:27;;;;;;;2.60;2.40;;;;;30.60;96273.00;;;;8333951;28;20228;-69
2023/07/05 17:49:33;;;;;;;4.20;2.70;;;;;30.70;96281.00;;;;8332427;28;20962;-70
2023/07/05 17:53:44;;;;;;;2.60;2.38;;;;;30.50;96280.00;;;;8334076;28;20202;-68
2023/07/05 17:57:50;;;;;;;4.07;2.75;;;;;29.80;96286.00;;;;8337715;28;20276;-67
2023/07/05 18:01:59;;;;;;;2.67;2.47;;;;;28.50;96292.00;;;;8341099;28;20347;-67
2023/07/05 18:06:05;;;;;;;3.10;2.53;;;;;27.40;96292.00;;;;8334873;28;20317;-68
2023/07/05 18:10:10;;;;;;;2.60;2.40;;;;;26.30;96296.00;;;;8319246;28;20244;-70
2023/07/05 18:14:17;;;;;;;7.72;2.60;;;;;25.40;96310.00;;;;8327674;28;20235;-69
2023/07/05 18:18:27;;;;;;;3.25;2.22;;;;;24.80;96312.00;;;;8329170;28;20280;-67
2023/07/05 18:22:35;;;;;;;2.50;2.30;;;;;24.20;96324.00;;;;8330081;28;20200;-67
2023/07/05 18:26:40;;;;;;;3.05;2.17;;;;;23.70;96319.00;;;;8338486;28;21668;-67
2023/07/05 18:30:47;;;;;;;2.53;2.33;;;;;23.20;96331.00;;;;8339209;28;20203;-69
2023/07/05 18:34:54;;;;;;;5.07;2.30;;;;;22.90;96326.00;;;;8349798;28;20231;-69
2023/07/05 18:39:02;;;;;;;7.68;2.60;;;;;22.50;96332.00;;;;8339937;28;20267;-66
2023/07/05 18:43:05;;;;;;;4.20;2.42;;;;;22.30;96333.00;;;;8341094;28;20244;-68
2023/07/05 18:47:09;;;;;;;4.68;2.30;;;;;22.10;96335.00;;;;8338037;28;20205;-67
2023/07/05 18:51:14;;;;;;;3.30;2.67;;;;;21.90;96338.00;;;;8346659;28;20243;-67
2023/07/05 18:55:18;;;;;;;4.07;2.67;;;;;21.70;96348.00;;;;8337492;28;20207;-69
2023/07/05 18:59:23;;;;;;;3.70;2.50;;;;;21.60;96352.00;;;;8340687;28;20337;-68
2023/07/05 19:03:33;;;;;;;5.25;2.58;;;;;21.50;96352.00;;;;8337438;28;20721;-66
2023/07/05 19:07:39;;;;;;;2.33;2.13;;;;;21.30;96349.00;;;;8312015;28;20934;-67
2023/07/05 19:11:48;;;;;;;3.60;2.60;;;;;21.10;96363.00;;;;8335176;28;20200;-69
2023/07/05 19:15:52;;;;;;;4.53;2.65;;;;;20.80;96359.00;;;;8323407;28;20197;-71
2023/07/05 19:19:58;;;;;;;4.72;2.58;;;;;20.50;96358.00;;;;8315086;28;20221;-70
2023/07/05 19:24:04;;;;;;;2.75;2.47;;;;;20.30;96364.00;;;;8324304;28;20599;-67
2023/07/05 19:28:09;;;;;;;2.95;2.50;;;;;20.00;96369.00;;;;8311508;28;20757;-71
2023/07/05 19:32:12;;;;;;;4.55;2.38;;;;;19.70;96379.00;;;;8306663;28;20193;-68
2023/07/05 19:36:15;;;;;;;5.55;2.53;;;;;19.40;96381.00;;;;8317346;28;20190;-65
2023/07/05 19:40:20;;;;;;;4.53;2.70;;;;;19.00;96395.00;;;;8306908;28;20231;-68
2023/07/05 19:44:24;;;;;;;6.78;2.45;;;;;18.60;96408.00;;;;8307058;28;20236;-66
2023/07/05 19:48:28;;;;;;;3.38;2.55;;;;;18.30;96410.00;;;;8323175;28;21081;-70
2023/07/05 19:52:33;;;;;;;6.00;2.80;;;;;17.90;96410.00;;;;8312964;28;20291;-70
2023/07/05 19:56:38;;;;;;;7.40;2.90;;;;;17.50;96419.00;;;;8308747;28;21576;-70
2023/07/05 20:00:45;;;;;;;4.70;2.60;;;;;17.20;96414.00;;;;8322038;28;20890;-68
2023/07/05 20:04:51;;;;;;;4.10;2.75;;;;;16.90;96416.00;;;;8339123;28;20263;-69
2023/07/05 20:08:57;;;;;;;3.85;2.92;;;;;16.60;96418.00;;;;8320890;28;20731;-69
2023/07/05 20:13:02;;;;;;;3.30;2.67;;;;;16.40;96420.00;;;;8316362;28;20717;-69
2023/07/05 20:17:06;;;;;;;5.50;2.70;;;;;16.20;96423.00;;;;8315720;28;20949;-68
2023/07/05 20:21:10;;;;;;;7.35;2.85;;;;;16.10;96420.00;;;;8302298;28;20206;-69
2023/07/05 20:25:18;;;;;;;4.68;2.47;;;;;15.90;96431.00;;;;8310268;28;20248;-71
2023/07/05 20:29:27;;;;;;;4.70;2.83;;;;;15.70;96432.00;;;;8310218;28;20681;-70
2023/07/05 20:33:32;;;;;;;5.72;2.60;;;;;15.50;96429.00;;;;8302826;28;20198;-70
2023/07/05 20:37:35;;;;;;;6.85;3.20;;;;;15.40;96421.00;;;;8312871;28;20315;-69